sensor_id;sensor_type;location;lat;lon;timestamp;temperature;humidity
23685;DHT22;12020;51.384;6.908;2023-10-13T00:02:11;17.60;99.90
23685;DHT22;12020;51.384;6.908;2023-10-13T00:04:42;17.60;99.90
23685;DHT22;12020;51.384;6.908;2023-10-13T00:07:09;17.60;99.90
23685;DHT22;12020;51.384;6.908;2023-10-13T00:09:36;17.60;99.90
23685;DHT22;12020;51.384;6.908;2023-10-13T00:12:05;17.70;99.90
23685;DHT22;12020;51.384;6.908;2023-10-13T00:14:41;17.70;99.90
23685;DHT22;12020;51.384;6.908;2023-10-13T00:17:08;17.70;99.90
23685;DHT22;12020;51.384;6.908;2023-10-13T00:19:47;17.70;99.90
23685;DHT22;12020;51.384;6.908;2023-10-13T00:22:22;17.70;99.90
23685;DHT22;12020;51.384;6.908;2023-10-13T00:24:48;17.70;99.90
23685;DHT22;12020;51.384;6.908;2023-10-13T00:27:19;17.70;99.90
23685;DHT22;12020;51.384;6.908;2023-10-13T00:30:05;17.70;99.90
23685;DHT22;12020;51.384;6.908;2023-10-13T00:32:50;17.70;99.90
23685;DHT22;12020;51.384;6.908;2023-10-13T00:35:23;17.80;99.90
23685;DHT22;12020;51.384;6.908;2023-10-13T00:38:04;17.80;99.90
23685;DHT22;12020;51.384;6.908;2023-10-13T00:40:40;17.80;99.90
23685;DHT22;12020;51.384;6.908;2023-10-13T00:43:08;17.80;99.90
23685;DHT22;12020;51.384;6.908;2023-10-13T00:45:55;17.80;99.90
23685;DHT22;12020;51.384;6.908;2023-10-13T00:48:32;17.80;99.90
23685;DHT22;12020;51.384;6.908;2023-10-13T00:51:05;17.80;99.90
23685;DHT22;12020;51.384;6.908;2023-10-13T00:53:33;17.70;99.90
23685;DHT22;12020;51.384;6.908;2023-10-13T00:56:01;17.70;99.90
23685;DHT22;12020;51.384;6.908;2023-10-13T00:58:34;17.70;99.90
23685;DHT22;12020;51.384;6.908;2023-10-13T01:01:03;17.70;99.90
23685;DHT22;12020;51.384;6.908;2023-10-13T01:03:52;17.70;99.90
23685;DHT22;12020;51.384;6.908;2023-10-13T01:06:21;17.70;99.90
23685;DHT22;12020;51.384;6.908;2023-10-13T01:09:13;17.70;99.90
23685;DHT22;12020;51.384;6.908;2023-10-13T01:11:49;17.70;99.90
23685;DHT22;12020;51.384;6.908;2023-10-13T01:14:22;17.70;99.90
23685;DHT22;12020;51.384;6.908;2023-10-13T01:16:55;17.70;99.90
23685;DHT22;12020;51.384;6.908;2023-10-13T01:19:24;17.70;99.90
23685;DHT22;12020;51.384;6.908;2023-10-13T01:21:52;17.70;99.90
23685;DHT22;12020;51.384;6.908;2023-10-13T01:24:26;17.70;99.90
23685;DHT22;12020;51.384;6.908;2023-10-13T01:26:55;17.70;99.90
23685;DHT22;12020;51.384;6.908;2023-10-13T01:29:22;17.70;99.90
23685;DHT22;12020;51.384;6.908;2023-10-13T01:32:01;17.70;99.90
23685;DHT22;12020;51.384;6.908;2023-10-13T01:34:35;17.70;99.90
23685;DHT22;12020;51.384;6.908;2023-10-13T01:37:01;17.70;99.90
23685;DHT22;12020;51.384;6.908;2023-10-13T01:39:32;17.70;99.90
23685;DHT22;12020;51.384;6.908;2023-10-13T01:41:58;17.70;99.90
23685;DHT22;12020;51.384;6.908;2023-10-13T01:44:26;17.70;99.90
23685;DHT22;12020;51.384;6.908;2023-10-13T01:47:00;17.60;99.90
23685;DHT22;12020;51.384;6.908;2023-10-13T01:49:43;17.60;99.90
23685;DHT22;12020;51.384;6.908;2023-10-13T01:52:13;17.60;99.90
23685;DHT22;12020;51.384;6.908;2023-10-13T01:54:42;17.70;99.90
23685;DHT22;12020;51.384;6.908;2023-10-13T01:57:11;17.60;99.90
23685;DHT22;12020;51.384;6.908;2023-10-13T01:59:49;17.60;99.90
23685;DHT22;12020;51.384;6.908;2023-10-13T02:02:16;17.60;99.90
23685;DHT22;12020;51.384;6.908;2023-10-13T02:05:00;17.60;99.90
23685;DHT22;12020;51.384;6.908;2023-10-13T02:07:29;17.60;99.90
23685;DHT22;12020;51.384;6.908;2023-10-13T02:10:02;17.60;99.90
23685;DHT22;12020;51.384;6.908;2023-10-13T02:12:31;17.60;99.90
23685;DHT22;12020;51.384;6.908;2023-10-13T02:15:16;17.60;99.90
23685;DHT22;12020;51.384;6.908;2023-10-13T02:17:53;17.60;99.90
23685;DHT22;12020;51.384;6.908;2023-10-13T02:20:20;17.60;99.90
23685;DHT22;12020;51.384;6.908;2023-10-13T02:22:52;17.60;99.90
23685;DHT22;12020;51.384;6.908;2023-10-13T02:25:19;17.60;99.90
23685;DHT22;12020;51.384;6.908;2023-10-13T02:28:11;17.60;99.90
23685;DHT22;12020;51.384;6.908;2023-10-13T02:30:42;17.60;99.90
23685;DHT22;12020;51.384;6.908;2023-10-13T02:33:12;17.60;99.90
23685;DHT22;12020;51.384;6.908;2023-10-13T02:35:38;17.60;99.90
23685;DHT22;12020;51.384;6.908;2023-10-13T02:38:16;17.60;99.90
23685;DHT22;12020;51.384;6.908;2023-10-13T02:40:51;17.60;99.90
23685;DHT22;12020;51.384;6.908;2023-10-13T02:43:20;17.60;99.90
23685;DHT22;12020;51.384;6.908;2023-10-13T02:45:55;17.60;99.90
23685;DHT22;12020;51.384;6.908;2023-10-13T02:48:28;17.60;99.90
23685;DHT22;12020;51.384;6.908;2023-10-13T02:51:13;17.60;99.90
23685;DHT22;12020;51.384;6.908;2023-10-13T02:53:47;17.60;99.90
23685;DHT22;12020;51.384;6.908;2023-10-13T02:56:14;17.60;99.90
23685;DHT22;12020;51.384;6.908;2023-10-13T02:58:50;17.60;99.90
23685;DHT22;12020;51.384;6.908;2023-10-13T03:01:35;17.60;99.90
23685;DHT22;12020;51.384;6.908;2023-10-13T03:04:03;17.60;99.90
23685;DHT22;12020;51.384;6.908;2023-10-13T03:06:33;17.60;99.90
23685;DHT22;12020;51.384;6.908;2023-10-13T03:09:08;17.60;99.90
23685;DHT22;12020;51.384;6.908;2023-10-13T03:11:53;17.60;99.90
23685;DHT22;12020;51.384;6.908;2023-10-13T03:14:23;17.60;99.90
23685;DHT22;12020;51.384;6.908;2023-10-13T03:16:54;17.60;99.90
23685;DHT22;12020;51.384;6.908;2023-10-13T03:19:22;17.60;99.90
23685;DHT22;12020;51.384;6.908;2023-10-13T03:21:54;17.60;99.90
23685;DHT22;12020;51.384;6.908;2023-10-13T03:24:31;17.60;99.90
23685;DHT22;12020;51.384;6.908;2023-10-13T03:27:06;17.60;99.90
23685;DHT22;12020;51.384;6.908;2023-10-13T03:29:39;17.60;99.90
23685;DHT22;12020;51.384;6.908;2023-10-13T03:32:14;17.60;99.90
23685;DHT22;12020;51.384;6.908;2023-10-13T03:34:49;17.60;99.90
23685;DHT22;12020;51.384;6.908;2023-10-13T03:37:38;17.60;99.90
23685;DHT22;12020;51.384;6.908;2023-10-13T03:40:06;17.60;99.90
23685;DHT22;12020;51.384;6.908;2023-10-13T03:42:56;17.60;99.90
23685;DHT22;12020;51.384;6.908;2023-10-13T03:45:27;17.60;99.90
23685;DHT22;12020;51.384;6.908;2023-10-13T03:47:53;17.60;99.90
23685;DHT22;12020;51.384;6.908;2023-10-13T03:50:22;17.60;99.90
23685;DHT22;12020;51.384;6.908;2023-10-13T03:53:00;17.60;99.90
23685;DHT22;12020;51.384;6.908;2023-10-13T03:55:27;17.60;99.90
23685;DHT22;12020;51.384;6.908;2023-10-13T03:58:00;17.60;99.90
23685;DHT22;12020;51.384;6.908;2023-10-13T04:00:27;17.60;99.90
23685;DHT22;12020;51.384;6.908;2023-10-13T04:02:56;17.60;99.90
23685;DHT22;12020;51.384;6.908;2023-10-13T04:05:32;17.60;99.90
23685;DHT22;12020;51.384;6.908;2023-10-13T04:08:08;17.60;99.90
23685;DHT22;12020;51.384;6.908;2023-10-13T04:10:52;17.60;99.90
23685;DHT22;12020;51.384;6.908;2023-10-13T04:13:22;17.60;99.90
23685;DHT22;12020;51.384;6.908;2023-10-13T04:16:09;17.60;99.90
23685;DHT22;12020;51.384;6.908;2023-10-13T04:18:50;17.60;99.90
23685;DHT22;12020;51.384;6.908;2023-10-13T04:21:40;17.60;99.90
23685;DHT22;12020;51.384;6.908;2023-10-13T04:24:21;17.50;99.90
23685;DHT22;12020;51.384;6.908;2023-10-13T04:27:12;17.60;99.90
23685;DHT22;12020;51.384;6.908;2023-10-13T04:29:41;17.60;99.90
23685;DHT22;12020;51.384;6.908;2023-10-13T04:32:13;17.60;99.90
23685;DHT22;12020;51.384;6.908;2023-10-13T04:34:40;17.60;99.90
23685;DHT22;12020;51.384;6.908;2023-10-13T04:37:13;17.60;99.90
23685;DHT22;12020;51.384;6.908;2023-10-13T04:39:56;17.60;99.90
23685;DHT22;12020;51.384;6.908;2023-10-13T04:42:33;17.60;99.90
23685;DHT22;12020;51.384;6.908;2023-10-13T04:45:16;17.60;99.90
23685;DHT22;12020;51.384;6.908;2023-10-13T04:47:58;17.60;99.90
23685;DHT22;12020;51.384;6.908;2023-10-13T04:50:47;17.60;99.90
23685;DHT22;12020;51.384;6.908;2023-10-13T04:53:18;17.70;99.90
23685;DHT22;12020;51.384;6.908;2023-10-13T04:56:00;17.70;99.90
23685;DHT22;12020;51.384;6.908;2023-10-13T04:58:34;17.70;99.90
23685;DHT22;12020;51.384;6.908;2023-10-13T05:01:18;17.70;99.90
23685;DHT22;12020;51.384;6.908;2023-10-13T05:03:56;17.70;99.90
23685;DHT22;12020;51.384;6.908;2023-10-13T05:06:47;17.70;99.90
23685;DHT22;12020;51.384;6.908;2023-10-13T05:09:32;17.70;99.90
23685;DHT22;12020;51.384;6.908;2023-10-13T05:12:19;17.70;99.90
23685;DHT22;12020;51.384;6.908;2023-10-13T05:15:04;17.70;99.90
23685;DHT22;12020;51.384;6.908;2023-10-13T05:17:49;17.70;99.90
23685;DHT22;12020;51.384;6.908;2023-10-13T05:20:33;17.70;99.90
23685;DHT22;12020;51.384;6.908;2023-10-13T05:23:20;17.70;99.90
23685;DHT22;12020;51.384;6.908;2023-10-13T05:26:06;17.70;99.90
23685;DHT22;12020;51.384;6.908;2023-10-13T05:28:51;17.70;99.90
23685;DHT22;12020;51.384;6.908;2023-10-13T05:31:35;17.70;99.90
23685;DHT22;12020;51.384;6.908;2023-10-13T05:34:23;17.70;99.90
23685;DHT22;12020;51.384;6.908;2023-10-13T05:37:09;17.70;99.90
23685;DHT22;12020;51.384;6.908;2023-10-13T05:39:55;17.70;99.90
23685;DHT22;12020;51.384;6.908;2023-10-13T05:42:40;17.70;99.90
23685;DHT22;12020;51.384;6.908;2023-10-13T05:45:25;17.70;99.90
23685;DHT22;12020;51.384;6.908;2023-10-13T05:48:27;17.70;99.90
23685;DHT22;12020;51.384;6.908;2023-10-13T05:51:33;17.70;99.90
23685;DHT22;12020;51.384;6.908;2023-10-13T05:54:05;17.70;99.90
23685;DHT22;12020;51.384;6.908;2023-10-13T05:56:45;17.70;99.90
23685;DHT22;12020;51.384;6.908;2023-10-13T05:59:31;17.80;99.90
23685;DHT22;12020;51.384;6.908;2023-10-13T06:02:20;17.80;99.90
23685;DHT22;12020;51.384;6.908;2023-10-13T06:05:17;17.80;99.90
23685;DHT22;12020;51.384;6.908;2023-10-13T06:08:02;17.80;99.90
23685;DHT22;12020;51.384;6.908;2023-10-13T06:10:48;17.90;99.90
23685;DHT22;12020;51.384;6.908;2023-10-13T06:13:35;17.90;99.90
23685;DHT22;12020;51.384;6.908;2023-10-13T06:16:21;17.90;99.90
23685;DHT22;12020;51.384;6.908;2023-10-13T06:19:14;17.90;99.90
23685;DHT22;12020;51.384;6.908;2023-10-13T06:22:01;18.00;99.90
23685;DHT22;12020;51.384;6.908;2023-10-13T06:24:47;17.90;99.90
23685;DHT22;12020;51.384;6.908;2023-10-13T06:27:33;17.90;99.90
23685;DHT22;12020;51.384;6.908;2023-10-13T06:30:20;18.00;99.90
23685;DHT22;12020;51.384;6.908;2023-10-13T06:32:46;18.00;99.90
23685;DHT22;12020;51.384;6.908;2023-10-13T06:35:14;18.00;99.90
23685;DHT22;12020;51.384;6.908;2023-10-13T06:37:51;18.00;99.90
23685;DHT22;12020;51.384;6.908;2023-10-13T06:40:21;18.00;99.90
23685;DHT22;12020;51.384;6.908;2023-10-13T06:42:48;18.00;99.90
23685;DHT22;12020;51.384;6.908;2023-10-13T06:45:14;18.00;99.90
23685;DHT22;12020;51.384;6.908;2023-10-13T06:47:45;18.00;99.90
23685;DHT22;12020;51.384;6.908;2023-10-13T06:50:14;18.00;99.90
23685;DHT22;12020;51.384;6.908;2023-10-13T06:52:51;18.00;99.90
23685;DHT22;12020;51.384;6.908;2023-10-13T06:55:21;18.10;99.90
23685;DHT22;12020;51.384;6.908;2023-10-13T06:57:56;18.10;99.90
23685;DHT22;12020;51.384;6.908;2023-10-13T07:00:30;18.10;99.90
23685;DHT22;12020;51.384;6.908;2023-10-13T07:03:01;18.10;99.90
23685;DHT22;12020;51.384;6.908;2023-10-13T07:05:44;18.20;99.90
23685;DHT22;12020;51.384;6.908;2023-10-13T07:08:11;18.20;99.90
23685;DHT22;12020;51.384;6.908;2023-10-13T07:11:00;18.20;99.90
23685;DHT22;12020;51.384;6.908;2023-10-13T07:13:32;18.20;99.90
23685;DHT22;12020;51.384;6.908;2023-10-13T07:16:05;18.20;99.90
23685;DHT22;12020;51.384;6.908;2023-10-13T07:18:38;18.30;99.90
23685;DHT22;12020;51.384;6.908;2023-10-13T07:21:16;18.30;99.90
23685;DHT22;12020;51.384;6.908;2023-10-13T07:23:42;18.30;99.90
23685;DHT22;12020;51.384;6.908;2023-10-13T07:26:28;18.40;99.90
23685;DHT22;12020;51.384;6.908;2023-10-13T07:28:56;18.40;99.90
23685;DHT22;12020;51.384;6.908;2023-10-13T07:31:22;18.40;99.90
23685;DHT22;12020;51.384;6.908;2023-10-13T07:33:52;18.40;99.90
23685;DHT22;12020;51.384;6.908;2023-10-13T07:36:31;18.40;99.90
23685;DHT22;12020;51.384;6.908;2023-10-13T07:39:08;18.50;99.90
23685;DHT22;12020;51.384;6.908;2023-10-13T07:42:00;18.50;99.90
23685;DHT22;12020;51.384;6.908;2023-10-13T07:44:30;18.50;99.90
23685;DHT22;12020;51.384;6.908;2023-10-13T07:47:00;18.60;99.90
23685;DHT22;12020;51.384;6.908;2023-10-13T07:49:32;18.60;99.90
23685;DHT22;12020;51.384;6.908;2023-10-13T07:52:19;18.60;99.90
23685;DHT22;12020;51.384;6.908;2023-10-13T07:54:49;18.70;99.90
23685;DHT22;12020;51.384;6.908;2023-10-13T07:57:21;18.70;99.90
23685;DHT22;12020;51.384;6.908;2023-10-13T07:59:57;18.70;99.90
23685;DHT22;12020;51.384;6.908;2023-10-13T08:02:59;18.70;99.90
23685;DHT22;12020;51.384;6.908;2023-10-13T08:05:45;18.70;99.90
23685;DHT22;12020;51.384;6.908;2023-10-13T08:08:31;18.80;99.90
23685;DHT22;12020;51.384;6.908;2023-10-13T08:11:07;18.80;99.90
23685;DHT22;12020;51.384;6.908;2023-10-13T08:14:04;18.90;99.90
23685;DHT22;12020;51.384;6.908;2023-10-13T08:16:42;19.00;99.90
23685;DHT22;12020;51.384;6.908;2023-10-13T08:19:12;19.00;99.90
23685;DHT22;12020;51.384;6.908;2023-10-13T08:21:44;19.10;99.90
23685;DHT22;12020;51.384;6.908;2023-10-13T08:24:28;19.10;99.90
23685;DHT22;12020;51.384;6.908;2023-10-13T08:27:21;19.20;99.90
23685;DHT22;12020;51.384;6.908;2023-10-13T08:30:15;19.20;99.90
23685;DHT22;12020;51.384;6.908;2023-10-13T08:33:01;19.30;99.90
23685;DHT22;12020;51.384;6.908;2023-10-13T08:35:49;19.30;99.90
23685;DHT22;12020;51.384;6.908;2023-10-13T08:38:35;19.40;99.90
23685;DHT22;12020;51.384;6.908;2023-10-13T08:41:16;19.50;99.90
23685;DHT22;12020;51.384;6.908;2023-10-13T08:43:44;19.60;99.90
23685;DHT22;12020;51.384;6.908;2023-10-13T08:46:17;19.60;99.90
23685;DHT22;12020;51.384;6.908;2023-10-13T08:48:58;19.70;99.90
23685;DHT22;12020;51.384;6.908;2023-10-13T08:51:41;19.80;99.90
23685;DHT22;12020;51.384;6.908;2023-10-13T08:54:15;19.90;99.90
23685;DHT22;12020;51.384;6.908;2023-10-13T08:56:48;19.90;99.90
23685;DHT22;12020;51.384;6.908;2023-10-13T08:59:29;19.90;99.90
23685;DHT22;12020;51.384;6.908;2023-10-13T09:02:15;19.90;99.90
23685;DHT22;12020;51.384;6.908;2023-10-13T09:05:01;20.00;99.90
23685;DHT22;12020;51.384;6.908;2023-10-13T09:07:45;20.10;99.90
23685;DHT22;12020;51.384;6.908;2023-10-13T09:10:22;20.30;99.90
23685;DHT22;12020;51.384;6.908;2023-10-13T09:12:58;20.30;99.90
23685;DHT22;12020;51.384;6.908;2023-10-13T09:15:30;20.50;99.90
23685;DHT22;12020;51.384;6.908;2023-10-13T09:18:23;20.50;99.90
23685;DHT22;12020;51.384;6.908;2023-10-13T09:21:07;20.70;99.90
23685;DHT22;12020;51.384;6.908;2023-10-13T09:23:52;20.80;99.90
23685;DHT22;12020;51.384;6.908;2023-10-13T09:26:36;20.90;99.90
23685;DHT22;12020;51.384;6.908;2023-10-13T09:29:01;21.00;99.90
23685;DHT22;12020;51.384;6.908;2023-10-13T09:31:32;21.10;99.90
23685;DHT22;12020;51.384;6.908;2023-10-13T09:33:59;21.10;99.90
23685;DHT22;12020;51.384;6.908;2023-10-13T09:36:26;21.20;99.90
23685;DHT22;12020;51.384;6.908;2023-10-13T09:38:53;21.30;99.90
23685;DHT22;12020;51.384;6.908;2023-10-13T09:41:40;21.40;99.90
23685;DHT22;12020;51.384;6.908;2023-10-13T09:44:06;21.60;99.90
23685;DHT22;12020;51.384;6.908;2023-10-13T09:46:37;21.80;99.90
23685;DHT22;12020;51.384;6.908;2023-10-13T09:49:19;21.90;99.90
23685;DHT22;12020;51.384;6.908;2023-10-13T09:52:01;22.10;99.90
23685;DHT22;12020;51.384;6.908;2023-10-13T09:54:34;22.10;99.90
23685;DHT22;12020;51.384;6.908;2023-10-13T09:57:15;22.20;99.90
23685;DHT22;12020;51.384;6.908;2023-10-13T09:59:57;22.30;99.90
23685;DHT22;12020;51.384;6.908;2023-10-13T10:02:32;22.40;99.90
23685;DHT22;12020;51.384;6.908;2023-10-13T10:04:58;22.50;99.90
23685;DHT22;12020;51.384;6.908;2023-10-13T10:07:42;22.60;99.90
23685;DHT22;12020;51.384;6.908;2023-10-13T10:10:21;22.60;99.90
23685;DHT22;12020;51.384;6.908;2023-10-13T10:13:07;22.60;99.90
23685;DHT22;12020;51.384;6.908;2023-10-13T10:15:43;22.60;99.90
23685;DHT22;12020;51.384;6.908;2023-10-13T10:18:20;22.60;99.90
23685;DHT22;12020;51.384;6.908;2023-10-13T10:20:50;22.60;99.90
23685;DHT22;12020;51.384;6.908;2023-10-13T10:23:25;22.60;99.90
23685;DHT22;12020;51.384;6.908;2023-10-13T10:25:53;22.50;99.90
23685;DHT22;12020;51.384;6.908;2023-10-13T10:28:36;22.50;99.90
23685;DHT22;12020;51.384;6.908;2023-10-13T10:31:05;22.50;99.90
23685;DHT22;12020;51.384;6.908;2023-10-13T10:33:35;22.50;99.90
23685;DHT22;12020;51.384;6.908;2023-10-13T10:36:01;22.50;99.90
23685;DHT22;12020;51.384;6.908;2023-10-13T10:38:27;22.50;99.90
23685;DHT22;12020;51.384;6.908;2023-10-13T10:41:07;22.50;99.90
23685;DHT22;12020;51.384;6.908;2023-10-13T10:43:39;22.40;99.90
23685;DHT22;12020;51.384;6.908;2023-10-13T10:46:15;22.50;99.90
23685;DHT22;12020;51.384;6.908;2023-10-13T10:48:42;22.40;99.90
23685;DHT22;12020;51.384;6.908;2023-10-13T10:51:11;22.50;99.90
23685;DHT22;12020;51.384;6.908;2023-10-13T10:53:47;22.50;99.90
23685;DHT22;12020;51.384;6.908;2023-10-13T10:56:15;22.50;99.90
23685;DHT22;12020;51.384;6.908;2023-10-13T10:59:00;22.50;99.90
23685;DHT22;12020;51.384;6.908;2023-10-13T11:01:27;22.50;99.90
23685;DHT22;12020;51.384;6.908;2023-10-13T11:04:07;22.40;99.90
23685;DHT22;12020;51.384;6.908;2023-10-13T11:06:58;22.40;99.90
23685;DHT22;12020;51.384;6.908;2023-10-13T11:09:28;22.40;99.90
23685;DHT22;12020;51.384;6.908;2023-10-13T11:12:17;22.40;99.90
23685;DHT22;12020;51.384;6.908;2023-10-13T11:15:06;22.50;99.90
23685;DHT22;12020;51.384;6.908;2023-10-13T11:17:42;22.50;99.90
23685;DHT22;12020;51.384;6.908;2023-10-13T11:20:12;22.50;99.90
23685;DHT22;12020;51.384;6.908;2023-10-13T11:22:48;22.50;99.90
23685;DHT22;12020;51.384;6.908;2023-10-13T11:25:24;22.60;99.90
23685;DHT22;12020;51.384;6.908;2023-10-13T11:27:58;22.60;99.90
23685;DHT22;12020;51.384;6.908;2023-10-13T11:30:32;22.60;99.90
23685;DHT22;12020;51.384;6.908;2023-10-13T11:33:05;22.60;99.90
23685;DHT22;12020;51.384;6.908;2023-10-13T11:35:38;22.60;99.90
23685;DHT22;12020;51.384;6.908;2023-10-13T11:38:36;22.60;99.90
23685;DHT22;12020;51.384;6.908;2023-10-13T11:41:14;22.70;99.90
23685;DHT22;12020;51.384;6.908;2023-10-13T11:43:43;22.80;99.90
23685;DHT22;12020;51.384;6.908;2023-10-13T11:46:13;22.90;99.90
23685;DHT22;12020;51.384;6.908;2023-10-13T11:48:41;23.00;99.90
23685;DHT22;12020;51.384;6.908;2023-10-13T11:51:12;23.20;99.90
23685;DHT22;12020;51.384;6.908;2023-10-13T11:53:50;23.20;99.90
23685;DHT22;12020;51.384;6.908;2023-10-13T11:56:19;23.30;99.90
23685;DHT22;12020;51.384;6.908;2023-10-13T11:58:50;23.30;99.90
23685;DHT22;12020;51.384;6.908;2023-10-13T12:01:16;23.40;99.90
23685;DHT22;12020;51.384;6.908;2023-10-13T12:04:07;23.40;99.90
23685;DHT22;12020;51.384;6.908;2023-10-13T12:06:52;23.40;99.90
23685;DHT22;12020;51.384;6.908;2023-10-13T12:09:41;23.30;99.90
23685;DHT22;12020;51.384;6.908;2023-10-13T12:12:19;23.30;99.90
23685;DHT22;12020;51.384;6.908;2023-10-13T12:14:49;23.30;99.90
23685;DHT22;12020;51.384;6.908;2023-10-13T12:17:28;23.30;99.90
23685;DHT22;12020;51.384;6.908;2023-10-13T12:20:01;23.40;99.90
23685;DHT22;12020;51.384;6.908;2023-10-13T12:22:34;23.40;99.90
23685;DHT22;12020;51.384;6.908;2023-10-13T12:25:12;23.40;99.90
23685;DHT22;12020;51.384;6.908;2023-10-13T12:27:57;23.40;99.90
23685;DHT22;12020;51.384;6.908;2023-10-13T12:30:24;23.40;99.90
23685;DHT22;12020;51.384;6.908;2023-10-13T12:33:14;23.40;99.90
23685;DHT22;12020;51.384;6.908;2023-10-13T12:38:40;23.30;99.90
23685;DHT22;12020;51.384;6.908;2023-10-13T12:41:12;23.30;99.90
23685;DHT22;12020;51.384;6.908;2023-10-13T12:43:56;23.30;99.90
23685;DHT22;12020;51.384;6.908;2023-10-13T12:46:40;23.30;99.90
23685;DHT22;12020;51.384;6.908;2023-10-13T12:49:25;23.30;99.90
23685;DHT22;12020;51.384;6.908;2023-10-13T12:52:12;23.30;99.90
23685;DHT22;12020;51.384;6.908;2023-10-13T12:54:56;23.30;99.90
23685;DHT22;12020;51.384;6.908;2023-10-13T12:57:22;23.30;99.90
23685;DHT22;12020;51.384;6.908;2023-10-13T12:59:51;23.30;99.90
23685;DHT22;12020;51.384;6.908;2023-10-13T13:02:23;23.20;99.90
23685;DHT22;12020;51.384;6.908;2023-10-13T13:04:57;23.20;99.90
23685;DHT22;12020;51.384;6.908;2023-10-13T13:07:31;23.20;99.90
23685;DHT22;12020;51.384;6.908;2023-10-13T13:09:57;23.20;99.90
23685;DHT22;12020;51.384;6.908;2023-10-13T13:12:26;23.20;99.90
23685;DHT22;12020;51.384;6.908;2023-10-13T13:14:54;23.20;99.90
23685;DHT22;12020;51.384;6.908;2023-10-13T13:17:23;23.20;99.90
23685;DHT22;12020;51.384;6.908;2023-10-13T13:19:49;23.20;99.90
23685;DHT22;12020;51.384;6.908;2023-10-13T13:22:16;23.20;99.90
23685;DHT22;12020;51.384;6.908;2023-10-13T13:24:43;23.20;99.90
23685;DHT22;12020;51.384;6.908;2023-10-13T13:27:15;23.20;99.90
23685;DHT22;12020;51.384;6.908;2023-10-13T13:29:44;23.20;99.90
23685;DHT22;12020;51.384;6.908;2023-10-13T13:32:10;23.20;99.90
23685;DHT22;12020;51.384;6.908;2023-10-13T13:34:47;23.20;99.90
23685;DHT22;12020;51.384;6.908;2023-10-13T13:37:21;23.20;99.90
23685;DHT22;12020;51.384;6.908;2023-10-13T13:39:46;23.20;99.90
23685;DHT22;12020;51.384;6.908;2023-10-13T13:42:12;23.20;99.90
23685;DHT22;12020;51.384;6.908;2023-10-13T13:44:44;23.20;99.90
23685;DHT22;12020;51.384;6.908;2023-10-13T13:47:15;23.20;99.90
23685;DHT22;12020;51.384;6.908;2023-10-13T13:49:43;23.20;99.90
23685;DHT22;12020;51.384;6.908;2023-10-13T13:52:17;23.20;99.90
23685;DHT22;12020;51.384;6.908;2023-10-13T13:54:59;23.10;99.90
23685;DHT22;12020;51.384;6.908;2023-10-13T13:57:28;23.10;99.90
23685;DHT22;12020;51.384;6.908;2023-10-13T13:59:55;23.10;99.90
23685;DHT22;12020;51.384;6.908;2023-10-13T14:02:23;23.10;99.90
23685;DHT22;12020;51.384;6.908;2023-10-13T14:04:49;23.10;99.90
23685;DHT22;12020;51.384;6.908;2023-10-13T14:07:18;23.10;99.90
23685;DHT22;12020;51.384;6.908;2023-10-13T14:09:48;23.10;99.90
23685;DHT22;12020;51.384;6.908;2023-10-13T14:12:18;23.10;99.90
23685;DHT22;12020;51.384;6.908;2023-10-13T14:15:09;23.10;99.90
23685;DHT22;12020;51.384;6.908;2023-10-13T14:17:49;23.10;99.90
23685;DHT22;12020;51.384;6.908;2023-10-13T14:20:15;23.10;99.90
23685;DHT22;12020;51.384;6.908;2023-10-13T14:22:44;23.00;99.90
23685;DHT22;12020;51.384;6.908;2023-10-13T14:25:13;23.00;99.90
23685;DHT22;12020;51.384;6.908;2023-10-13T14:27:44;23.00;99.90
23685;DHT22;12020;51.384;6.908;2023-10-13T14:30:10;23.00;99.90
23685;DHT22;12020;51.384;6.908;2023-10-13T14:32:35;23.00;99.90
23685;DHT22;12020;51.384;6.908;2023-10-13T14:35:06;22.90;99.90
23685;DHT22;12020;51.384;6.908;2023-10-13T14:37:40;22.90;99.90
23685;DHT22;12020;51.384;6.908;2023-10-13T14:40:06;22.90;99.90
23685;DHT22;12020;51.384;6.908;2023-10-13T14:42:38;22.80;99.90
23685;DHT22;12020;51.384;6.908;2023-10-13T14:45:06;22.80;99.90
23685;DHT22;12020;51.384;6.908;2023-10-13T14:47:39;22.80;99.90
23685;DHT22;12020;51.384;6.908;2023-10-13T14:50:05;22.80;99.90
23685;DHT22;12020;51.384;6.908;2023-10-13T14:52:31;22.70;99.90
23685;DHT22;12020;51.384;6.908;2023-10-13T14:54:58;22.70;99.90
23685;DHT22;12020;51.384;6.908;2023-10-13T14:57:23;22.70;99.90
23685;DHT22;12020;51.384;6.908;2023-10-13T14:59:56;22.60;99.90
23685;DHT22;12020;51.384;6.908;2023-10-13T15:02:23;22.60;99.90
23685;DHT22;12020;51.384;6.908;2023-10-13T15:04:49;22.60;99.90
23685;DHT22;12020;51.384;6.908;2023-10-13T15:07:16;22.60;99.90
23685;DHT22;12020;51.384;6.908;2023-10-13T15:09:43;22.60;99.90
23685;DHT22;12020;51.384;6.908;2023-10-13T15:12:12;22.60;99.90
23685;DHT22;12020;51.384;6.908;2023-10-13T15:14:39;22.50;99.90
23685;DHT22;12020;51.384;6.908;2023-10-13T15:17:08;22.50;99.90
23685;DHT22;12020;51.384;6.908;2023-10-13T15:19:35;22.50;99.90
23685;DHT22;12020;51.384;6.908;2023-10-13T15:22:08;22.50;99.90
23685;DHT22;12020;51.384;6.908;2023-10-13T15:24:42;22.50;99.90
23685;DHT22;12020;51.384;6.908;2023-10-13T15:27:23;22.50;99.90
23685;DHT22;12020;51.384;6.908;2023-10-13T15:29:48;22.40;99.90
23685;DHT22;12020;51.384;6.908;2023-10-13T15:32:16;22.40;99.90
23685;DHT22;12020;51.384;6.908;2023-10-13T15:35:00;22.40;99.90
23685;DHT22;12020;51.384;6.908;2023-10-13T15:37:26;22.40;99.90
23685;DHT22;12020;51.384;6.908;2023-10-13T15:39:55;22.30;99.90
23685;DHT22;12020;51.384;6.908;2023-10-13T15:42:23;22.30;99.90
23685;DHT22;12020;51.384;6.908;2023-10-13T15:44:48;22.30;99.90
23685;DHT22;12020;51.384;6.908;2023-10-13T15:47:15;22.30;99.90
23685;DHT22;12020;51.384;6.908;2023-10-13T15:49:41;22.30;99.90
23685;DHT22;12020;51.384;6.908;2023-10-13T15:52:08;22.30;99.90
23685;DHT22;12020;51.384;6.908;2023-10-13T15:54:35;22.30;99.90
23685;DHT22;12020;51.384;6.908;2023-10-13T15:57:01;22.30;99.90
23685;DHT22;12020;51.384;6.908;2023-10-13T15:59:33;22.20;99.90
23685;DHT22;12020;51.384;6.908;2023-10-13T16:02:00;22.20;99.90
23685;DHT22;12020;51.384;6.908;2023-10-13T16:04:25;22.20;99.90
23685;DHT22;12020;51.384;6.908;2023-10-13T16:06:51;22.20;99.90
23685;DHT22;12020;51.384;6.908;2023-10-13T16:09:17;22.20;99.90
23685;DHT22;12020;51.384;6.908;2023-10-13T16:11:49;22.20;99.90
23685;DHT22;12020;51.384;6.908;2023-10-13T16:14:15;22.20;99.90
23685;DHT22;12020;51.384;6.908;2023-10-13T16:16:44;22.20;99.90
23685;DHT22;12020;51.384;6.908;2023-10-13T16:19:20;22.10;99.90
23685;DHT22;12020;51.384;6.908;2023-10-13T16:21:50;22.10;99.90
23685;DHT22;12020;51.384;6.908;2023-10-13T16:24:17;22.10;99.90